MUCM/CMW METAR and TAF weather

Enter ICAO airport designator
Station Type Date Time Source
MUCM METAR 2022/06/27 17:51 UTC NOAA

MUCM 271751Z VRB02KT 9000 SCT018TCU BKN080 30/23 Q1016


Station Type Date Time Source
MUCM Decoded METAR 2022/06/27 17:51 UTC NOAA

Camaguey Aeropuerto, Cuba (MUCM) 21-25N 077-51W 118M
Jun 27, 2022 - 01:51 PM EDT / 2022.06.27 1751 UTC
Wind: Variable at 2 MPH (2 KT):0
Visibility: 5 mile(s):0
Sky conditions: mostly cloudy
Weather: Towering cumulus clouds observed
Temperature: 86 F (30 C)
Heat index: 93.4 F (34.1 C):1
Dew Point: 73 F (23 C)
Relative Humidity: 66%
Pressure (altimeter): 30.00 in. Hg (1016 hPa)
ob: MUCM 271751Z VRB02KT 9000 SCT018TCU BKN080 30/23 Q1016
cycle: 18

Station Type Date Time Source
MUCM TAF 2022/06/27 18:23 UTC NOAA

TAF MUCM 271700Z 2718/2818 09006KT 9000 SCT016
TEMPO 2718/2724 3000 TSRA SCT018CB BKN020
BECMG 2801/2803 VRB03KT FEW020

Example: see airport list